Terminal Aerodrome Forecast
Issued by NWS

Home | Current Version | Previous Version | Text Only | Print | Product List | Glossary On
Versions: 1 2 3 4 5 6 7 8 9 10 11 12 13 14
000
FTUS46 KPDT 191700
TAFALW
TAF
KALW 191736Z 1918/2018 24011KT P6SM SCT120 SCT200
     FM192000 25014G22KT P6SM BKN080
     FM192300 23018G28KT P6SM BKN060
     FM200300 21013G20KT P6SM SCT070
     FM200600 19012KT P6SM SKC=

USA.gov is the U.S. government's official web portal to all federal, state and local government web resources and services.